Pagrindinis puslapis
METAR-TAF:

METAR-TAF

Oro uostai :

Hafar Al-Batin, Saudo Arabija

platuma: 27-54N, ilguma: 045-32E, Aukštis: 413 m

METAR: trūkstamas

Laikas: 00:55 (21:55 UTC)

Prognozė

Ataskaita buvo paskelbta 16 valandos ir 55 minutes, ne 05:00 UTC
Prognozė galioja nuo 12 metu 06 UTC su 12 metu 20 UTC
Vėjas 14 kt iš Pietų/Pietryčių
Matomumas: 8000 m
Mažai debesys ne aukštis 4000 ft
Išsisklaidę debesys ne aukštis 10000 ft
Laikinai
nuo 12 metu 15 UTC su 12 metu 20 UTC
Vėjas 20 kt nuo kintamojo kryptimis
Matomumas: 4000 m
Mažai debesys ne aukštis 3500 ft, Liūtiniai kamuoliniai debesys.
Dulkes pustymas, perkūnija, lietus

TAF: OEKK 120500Z 1206/1220 16014KT 8000 FEW040 SCT100 TEMPO 1215/1220 VRB20KT 4000 BLDU TSRA FEW035CB

Orai ataskaitas ir orų prognozės (METAR, TAF).

turimą stotys yra geltonos ir raudonos taškus žemėlapyje.

Perkelti pele per norėdami pamatyti stoties vardą.

Tada spustelėkite, norėdami matyti oro stebėjimo ir prognozės.

Norėdami pakeisti žemėlapį: spustelėkite ant žalios mygtukų su juodo kryžiaus žemyn,; žalią mygtuką su brūkšneliu, jei norite nutolinti; arba žalių rodyklių gretimoms žemėlapius.


METAR-TAF: